createdAt,value
2022-12-26T00:01:30.678Z,8.65
2022-12-26T00:03:57.917Z,9.25
2022-12-26T00:06:28.726Z,9.20
2022-12-26T00:08:57.043Z,9.18
2022-12-26T00:11:25.181Z,9.57
2022-12-26T00:14:03.798Z,10.38
2022-12-26T00:16:30.878Z,12.05
2022-12-26T00:18:57.951Z,10.38
2022-12-26T00:21:27.659Z,10.43
2022-12-26T00:23:56.484Z,9.45
2022-12-26T00:26:24.977Z,10.13
2022-12-26T00:28:54.767Z,10.63
2022-12-26T00:31:24.772Z,10.00
2022-12-26T00:33:52.347Z,9.52
2022-12-26T00:36:25.469Z,9.25
2022-12-26T00:38:52.764Z,8.70
2022-12-26T00:41:21.498Z,9.63
2022-12-26T00:43:49.201Z,9.00
2022-12-26T00:46:19.085Z,7.20
2022-12-26T00:48:46.245Z,9.00
2022-12-26T00:51:14.540Z,10.43
2022-12-26T00:53:42.107Z,9.65
2022-12-26T00:56:09.367Z,8.25
2022-12-26T00:58:36.703Z,9.40
2022-12-26T01:01:09.450Z,8.52
2022-12-26T01:03:36.759Z,8.02
2022-12-26T01:06:04.710Z,8.70
2022-12-26T01:08:32.287Z,8.95
2022-12-26T01:11:04.609Z,7.43
2022-12-26T01:13:32.623Z,7.38
2022-12-26T01:15:59.980Z,8.82
2022-12-26T01:18:27.450Z,8.55
2022-12-26T01:20:59.845Z,10.45
2022-12-26T01:23:27.099Z,10.00
2022-12-26T01:26:15.340Z,10.05
2022-12-26T01:28:41.139Z,10.05
2022-12-26T01:31:08.226Z,9.32
2022-12-26T01:33:36.283Z,10.25
2022-12-26T01:36:03.295Z,9.32
2022-12-26T01:38:30.490Z,9.50
2022-12-26T01:41:16.242Z,9.35
2022-12-26T01:44:04.202Z,8.75
2022-12-26T01:46:31.060Z,12.20
2022-12-26T01:49:02.292Z,8.45
2022-12-26T01:51:34.212Z,8.60
2022-12-26T01:54:38.198Z,7.78
2022-12-26T01:56:52.397Z,7.60
2022-12-26T01:59:23.750Z,8.07
2022-12-26T02:01:53.925Z,7.57
2022-12-26T02:04:47.344Z,6.88
2022-12-26T02:07:14.464Z,6.68
2022-12-26T02:09:41.859Z,6.80
2022-12-26T02:12:36.438Z,7.10
2022-12-26T02:15:09.187Z,7.10
2022-12-26T02:17:37.465Z,6.75
2022-12-26T02:20:05.906Z,7.65
2022-12-26T02:23:03.611Z,7.57
2022-12-26T02:26:11.666Z,6.88
2022-12-26T02:29:15.877Z,6.75
2022-12-26T02:32:04.100Z,6.53
2022-12-26T02:34:46.321Z,6.60
2022-12-26T02:37:40.915Z,7.40
2022-12-26T02:40:25.160Z,6.85
2022-12-26T02:43:11.746Z,5.78
2022-12-26T02:46:07.979Z,6.85
2022-12-26T02:48:51.692Z,6.63
2022-12-26T02:51:46.359Z,5.38
2022-12-26T02:54:50.862Z,6.43
2022-12-26T02:57:41.138Z,5.55
2022-12-26T03:00:40.460Z,6.25
2022-12-26T03:03:40.934Z,6.55
2022-12-26T03:06:39.130Z,6.65
2022-12-26T03:09:40.517Z,6.40
2022-12-26T03:12:36.966Z,6.30
2022-12-26T03:15:09.104Z,6.55
2022-12-26T03:17:43.044Z,6.05
2022-12-26T03:20:15.073Z,6.75
2022-12-26T03:22:47.170Z,6.03
2022-12-26T03:25:45.808Z,6.65
2022-12-26T03:28:14.195Z,6.68
2022-12-26T03:30:51.071Z,5.82
2022-12-26T03:33:46.922Z,6.55
2022-12-26T03:36:28.462Z,7.53
2022-12-26T03:39:09.522Z,6.63
2022-12-26T03:42:04.408Z,6.43
2022-12-26T03:45:13.848Z,6.40
2022-12-26T03:48:34.722Z,6.25
2022-12-26T03:51:29.574Z,6.25
2022-12-26T03:54:27.716Z,6.75
2022-12-26T03:57:19.559Z,6.70
2022-12-26T04:00:17.110Z,6.40
2022-12-26T04:03:06.332Z,10.68
2022-12-26T04:05:55.925Z,7.32
2022-12-26T04:08:58.232Z,7.80
2022-12-26T04:11:44.008Z,7.18
2022-12-26T04:14:39.751Z,6.93
2022-12-26T04:18:01.961Z,7.27
2022-12-26T04:20:50.556Z,7.47
2022-12-26T04:24:06.246Z,7.13
2022-12-26T04:26:59.539Z,7.68
2022-12-26T04:29:44.863Z,8.90
2022-12-26T04:32:42.334Z,8.38
2022-12-26T04:35:57.355Z,7.35
2022-12-26T04:38:47.744Z,8.27
2022-12-26T04:41:34.703Z,9.18
2022-12-26T04:44:12.401Z,7.40
2022-12-26T04:46:42.259Z,8.48
2022-12-26T04:49:31.292Z,8.25
2022-12-26T04:52:00.390Z,7.80
2022-12-26T04:54:28.501Z,7.00
2022-12-26T04:56:55.823Z,7.60
2022-12-26T04:59:23.981Z,7.65
2022-12-26T05:02:10.521Z,7.13
2022-12-26T05:04:56.012Z,8.32
2022-12-26T05:07:49.189Z,7.13
2022-12-26T05:10:22.655Z,6.50
2022-12-26T05:12:50.185Z,5.75
2022-12-26T05:15:17.803Z,6.60
2022-12-26T05:18:03.768Z,6.40
2022-12-26T05:20:49.793Z,7.95
2022-12-26T05:23:47.572Z,7.85
2022-12-26T05:26:37.727Z,8.93
2022-12-26T05:29:05.094Z,7.55
2022-12-26T05:31:35.980Z,13.18
2022-12-26T05:34:21.736Z,7.57
2022-12-26T05:36:51.830Z,7.45
2022-12-26T05:39:19.502Z,11.65
2022-12-26T05:41:47.041Z,8.48
2022-12-26T05:44:14.147Z,7.53
2022-12-26T05:46:42.798Z,8.32
2022-12-26T05:49:10.263Z,7.65
2022-12-26T05:51:37.533Z,7.57
2022-12-26T05:54:05.491Z,7.75
2022-12-26T05:56:33.984Z,7.90
2022-12-26T05:59:02.044Z,7.68
2022-12-26T06:01:30.916Z,9.93
2022-12-26T06:04:00.523Z,6.80
2022-12-26T06:06:28.736Z,8.32
2022-12-26T06:08:59.906Z,8.88
2022-12-26T06:11:27.321Z,8.70
2022-12-26T06:13:55.504Z,7.95
2022-12-26T06:16:23.094Z,7.18
2022-12-26T06:18:50.748Z,8.57
2022-12-26T06:21:20.596Z,7.18
2022-12-26T06:23:49.151Z,6.95
2022-12-26T06:26:17.166Z,6.80
2022-12-26T06:28:45.484Z,7.53
2022-12-26T06:31:24.204Z,8.10
2022-12-26T06:33:54.698Z,7.32
2022-12-26T06:36:24.199Z,10.40
2022-12-26T06:38:52.463Z,7.50
2022-12-26T06:41:21.260Z,7.88
2022-12-26T06:43:49.144Z,11.57
2022-12-26T06:46:19.809Z,8.02
2022-12-26T06:48:47.419Z,7.47
2022-12-26T06:51:17.768Z,6.78
2022-12-26T06:53:45.211Z,10.60
2022-12-26T06:56:26.276Z,10.00
2022-12-26T06:58:58.073Z,10.98
2022-12-26T07:01:27.233Z,10.77
2022-12-26T07:03:55.362Z,11.05
2022-12-26T07:06:36.623Z,11.48
2022-12-26T07:09:14.481Z,14.23
2022-12-26T07:11:45.076Z,13.32
2022-12-26T07:14:12.790Z,12.57
2022-12-26T07:16:41.856Z,12.88
2022-12-26T07:19:12.285Z,11.90
2022-12-26T07:21:40.977Z,12.90
2022-12-26T07:24:19.138Z,14.70
2022-12-26T07:26:47.146Z,13.55
2022-12-26T07:29:15.402Z,14.43
2022-12-26T07:31:43.013Z,17.27
2022-12-26T07:34:10.496Z,15.57
2022-12-26T07:36:37.577Z,14.60
2022-12-26T07:39:04.761Z,16.40
2022-12-26T07:41:50.964Z,15.40
2022-12-26T07:44:18.142Z,15.60
2022-12-26T07:46:46.979Z,18.88
2022-12-26T07:49:16.759Z,21.00
2022-12-26T07:51:45.521Z,18.85
2022-12-26T07:54:12.870Z,21.65
2022-12-26T07:56:40.715Z,19.75
2022-12-26T07:59:12.340Z,19.52
2022-12-26T08:01:41.622Z,18.85
2022-12-26T08:04:09.387Z,20.45
2022-12-26T08:06:38.117Z,20.35
2022-12-26T08:09:05.870Z,20.65
2022-12-26T08:11:39.441Z,16.10
2022-12-26T08:14:06.431Z,16.50
2022-12-26T08:16:33.622Z,17.83
2022-12-26T08:19:04.185Z,18.48
2022-12-26T08:21:31.936Z,19.75
2022-12-26T08:24:00.471Z,23.92
2022-12-26T08:26:28.264Z,22.05
2022-12-26T08:28:56.944Z,16.52
2022-12-26T08:31:26.796Z,22.30
2022-12-26T08:33:57.510Z,22.42
2022-12-26T08:36:25.358Z,20.88
2022-12-26T08:38:56.703Z,20.58
2022-12-26T08:41:23.900Z,21.83
2022-12-26T08:46:41.165Z,21.33
2022-12-26T08:49:08.212Z,21.05
2022-12-26T08:51:35.632Z,17.83
2022-12-26T08:54:02.876Z,21.80
2022-12-26T08:56:30.055Z,21.13
2022-12-26T08:58:57.215Z,25.55
2022-12-26T09:01:28.299Z,29.25
2022-12-26T09:03:57.664Z,24.40
2022-12-26T09:06:42.208Z,22.27
2022-12-26T09:09:21.707Z,22.08
2022-12-26T09:11:48.743Z,31.63
2022-12-26T09:14:17.108Z,21.77
2022-12-26T09:16:50.341Z,30.67
2022-12-26T09:19:24.594Z,30.88
2022-12-26T09:22:14.232Z,23.58
2022-12-26T09:24:41.945Z,20.17
2022-12-26T09:27:11.084Z,29.65
2022-12-26T09:29:38.515Z,28.25
2022-12-26T09:32:05.679Z,32.55
2022-12-26T09:34:36.972Z,21.23
2022-12-26T09:37:05.298Z,35.10
2022-12-26T09:39:32.382Z,29.40
2022-12-26T09:42:17.821Z,24.00
2022-12-26T09:45:04.657Z,25.90
2022-12-26T09:47:36.938Z,27.80
2022-12-26T09:50:09.659Z,24.08
2022-12-26T09:52:55.508Z,18.08
2022-12-26T09:55:42.421Z,18.38
2022-12-26T10:00:56.855Z,15.02
2022-12-26T10:03:24.212Z,24.23
2022-12-26T10:06:15.846Z,14.95
2022-12-26T10:08:48.447Z,13.95
2022-12-26T10:11:42.091Z,19.88
2022-12-26T10:14:34.887Z,18.30
2022-12-26T10:17:09.123Z,19.23
2022-12-26T10:19:41.546Z,25.13
2022-12-26T10:22:20.775Z,17.48
2022-12-26T10:24:48.702Z,16.83
2022-12-26T10:27:17.552Z,15.43
2022-12-26T10:30:00.322Z,15.73
2022-12-26T10:32:56.837Z,15.40
2022-12-26T10:38:56.455Z,14.90
2022-12-26T10:44:14.907Z,18.77
2022-12-26T10:46:57.068Z,14.40
2022-12-26T10:49:29.882Z,16.58
2022-12-26T10:52:15.192Z,16.00
2022-12-26T10:54:42.419Z,22.65
2022-12-26T10:57:11.447Z,17.70
2022-12-26T10:59:44.021Z,21.60
2022-12-26T11:02:33.351Z,16.67
2022-12-26T11:05:21.863Z,18.05
2022-12-26T11:08:15.737Z,13.35
2022-12-26T11:10:48.245Z,15.70
2022-12-26T11:13:22.191Z,13.90
2022-12-26T11:15:52.219Z,13.60
2022-12-26T11:18:43.532Z,11.63
2022-12-26T11:21:19.927Z,11.93
2022-12-26T11:23:52.001Z,11.52
2022-12-26T11:26:24.822Z,10.73
2022-12-26T11:29:21.583Z,11.50
2022-12-26T11:31:56.801Z,10.88
2022-12-26T11:34:30.012Z,11.50
2022-12-26T11:36:56.993Z,13.35
2022-12-26T11:39:29.228Z,11.00
2022-12-26T11:41:57.864Z,11.55
2022-12-26T11:44:41.171Z,11.15
2022-12-26T11:47:15.253Z,10.10
2022-12-26T11:49:54.286Z,10.05
2022-12-26T11:52:43.801Z,12.52
2022-12-26T11:55:23.075Z,12.55
2022-12-26T11:58:15.976Z,12.85
2022-12-26T12:00:52.054Z,12.52
2022-12-26T12:03:29.478Z,12.95
2022-12-26T12:06:55.617Z,11.43
2022-12-26T12:09:25.561Z,10.13
2022-12-26T12:11:55.451Z,11.18
2022-12-26T12:14:38.923Z,9.85
2022-12-26T12:17:21.088Z,10.05
2022-12-26T12:19:59.532Z,10.02
2022-12-26T12:22:47.429Z,10.18
2022-12-26T12:25:29.531Z,10.55
2022-12-26T12:28:41.176Z,10.73
2022-12-26T12:31:30.037Z,11.27
2022-12-26T12:34:03.024Z,11.90
2022-12-26T12:36:51.309Z,11.13
2022-12-26T12:39:31.872Z,11.48
2022-12-26T12:42:40.352Z,12.48
2022-12-26T12:45:42.473Z,12.05
2022-12-26T12:48:21.583Z,12.10
2022-12-26T12:51:19.462Z,12.32
2022-12-26T12:54:02.139Z,13.30
2022-12-26T12:56:42.552Z,12.48
2022-12-26T12:59:27.659Z,12.82
2022-12-26T13:02:02.767Z,15.68
2022-12-26T13:04:40.237Z,16.48
2022-12-26T13:07:14.234Z,14.65
2022-12-26T13:09:53.217Z,15.25
2022-12-26T13:12:38.677Z,12.57
2022-12-26T13:15:15.931Z,17.67
2022-12-26T13:17:54.936Z,13.52
2022-12-26T13:20:30.583Z,14.10
2022-12-26T13:26:04.976Z,14.20
2022-12-26T13:28:39.966Z,12.23
2022-12-26T13:31:07.318Z,12.82
2022-12-26T13:33:35.204Z,13.13
2022-12-26T13:36:05.200Z,13.98
2022-12-26T13:38:56.909Z,16.27
2022-12-26T13:41:59.027Z,16.65
2022-12-26T13:44:27.569Z,22.30
2022-12-26T13:46:59.500Z,15.60
2022-12-26T13:49:38.191Z,17.17
2022-12-26T13:52:11.152Z,22.02
2022-12-26T13:54:58.540Z,15.73
2022-12-26T13:57:41.998Z,15.65
2022-12-26T14:00:33.655Z,14.77
2022-12-26T14:03:19.192Z,14.95
2022-12-26T14:06:03.814Z,13.90
2022-12-26T14:08:33.815Z,13.55
2022-12-26T14:11:34.194Z,14.02
2022-12-26T14:14:12.141Z,17.70
2022-12-26T14:17:16.078Z,14.13
2022-12-26T14:20:05.963Z,12.73
2022-12-26T14:22:46.428Z,14.27
2022-12-26T14:25:19.659Z,15.85
2022-12-26T14:28:27.131Z,16.67
2022-12-26T14:31:09.483Z,21.25
2022-12-26T14:34:10.784Z,19.95
2022-12-26T14:37:05.526Z,16.00
2022-12-26T14:40:19.967Z,22.00
2022-12-26T14:43:12.885Z,19.67
2022-12-26T14:45:42.672Z,16.60
2022-12-26T14:48:29.818Z,20.23
2022-12-26T14:51:19.457Z,19.40
2022-12-26T14:54:33.307Z,19.80
2022-12-26T14:57:02.896Z,20.30
2022-12-26T14:59:34.885Z,16.80
2022-12-26T15:02:16.460Z,20.63
2022-12-26T15:05:07.228Z,16.98
2022-12-26T15:07:40.000Z,24.42
2022-12-26T15:10:35.585Z,19.55
2022-12-26T15:13:11.139Z,25.65
2022-12-26T15:15:59.753Z,19.30
2022-12-26T15:18:48.599Z,26.30
2022-12-26T15:21:31.306Z,22.02
2022-12-26T15:24:29.940Z,21.33
2022-12-26T15:27:37.330Z,17.50
2022-12-26T15:30:31.478Z,15.02
2022-12-26T15:33:25.146Z,18.10
2022-12-26T15:36:14.303Z,16.67
2022-12-26T15:38:56.627Z,14.13
2022-12-26T15:41:35.640Z,24.02
2022-12-26T15:44:20.699Z,19.98
2022-12-26T15:46:58.070Z,12.60
2022-12-26T15:49:28.104Z,12.50
2022-12-26T15:52:10.354Z,11.05
2022-12-26T15:54:49.375Z,13.15
2022-12-26T15:57:47.251Z,12.80
2022-12-26T16:00:20.835Z,12.52
2022-12-26T16:02:50.148Z,11.35
2022-12-26T16:05:33.641Z,12.48
2022-12-26T16:08:24.950Z,9.82
2022-12-26T16:11:12.879Z,17.27
2022-12-26T16:13:53.385Z,10.48
2022-12-26T16:16:26.003Z,10.55
2022-12-26T16:18:53.038Z,11.13
2022-12-26T16:21:40.870Z,10.40
2022-12-26T16:24:12.982Z,16.73
2022-12-26T16:26:44.078Z,10.27
2022-12-26T16:29:17.276Z,10.05
2022-12-26T16:31:45.020Z,10.10
2022-12-26T16:34:19.686Z,10.35
2022-12-26T16:36:50.205Z,11.57
2022-12-26T16:39:23.519Z,13.20
2022-12-26T16:41:58.465Z,14.23
2022-12-26T16:44:34.627Z,11.45
2022-12-26T16:47:07.680Z,11.80
2022-12-26T16:49:35.944Z,10.98
2022-12-26T16:52:03.265Z,11.63
2022-12-26T16:54:42.456Z,11.20
2022-12-26T16:57:14.672Z,11.45
2022-12-26T16:59:56.139Z,10.90
2022-12-26T17:02:34.144Z,11.80
2022-12-26T17:05:27.453Z,10.98
2022-12-26T17:07:58.217Z,11.05
2022-12-26T17:10:49.990Z,15.63
2022-12-26T17:13:28.888Z,11.38
2022-12-26T17:15:58.862Z,10.70
2022-12-26T17:18:43.110Z,12.00
2022-12-26T17:21:28.479Z,10.82
2022-12-26T17:24:07.634Z,11.55
2022-12-26T17:26:37.814Z,16.25
2022-12-26T17:29:04.994Z,10.90
2022-12-26T17:31:39.260Z,11.77
2022-12-26T17:34:26.753Z,12.27
2022-12-26T17:37:18.538Z,18.65
2022-12-26T17:39:41.427Z,11.30
2022-12-26T17:42:08.382Z,10.60
2022-12-26T17:44:44.738Z,11.13
2022-12-26T17:47:32.895Z,11.38
2022-12-26T17:50:00.051Z,10.52
2022-12-26T17:52:29.551Z,11.00
2022-12-26T17:54:59.951Z,12.32
2022-12-26T17:57:31.204Z,10.80
2022-12-26T17:59:58.250Z,13.90
2022-12-26T18:02:28.155Z,12.63
2022-12-26T18:04:56.105Z,14.90
2022-12-26T18:07:31.283Z,16.08
2022-12-26T18:10:00.635Z,19.85
2022-12-26T18:12:28.326Z,15.40
2022-12-26T18:15:02.208Z,14.57
2022-12-26T18:17:33.423Z,14.13
2022-12-26T18:20:03.911Z,14.90
2022-12-26T18:22:30.991Z,14.55
2022-12-26T18:24:57.929Z,13.50
2022-12-26T18:27:34.200Z,12.35
2022-12-26T18:30:02.259Z,12.38
2022-12-26T18:32:32.202Z,15.82
2022-12-26T18:35:00.169Z,14.88
2022-12-26T18:37:29.345Z,14.02
2022-12-26T18:39:56.784Z,15.57
2022-12-26T18:42:24.146Z,12.10
2022-12-26T18:44:51.002Z,15.75
2022-12-26T18:47:20.668Z,14.27
2022-12-26T18:49:47.750Z,12.88
2022-12-26T18:52:17.485Z,13.23
2022-12-26T18:54:45.668Z,12.60
2022-12-26T18:57:18.817Z,14.95
2022-12-26T18:59:48.299Z,13.52
2022-12-26T19:02:18.325Z,13.32
2022-12-26T19:04:48.825Z,13.85
2022-12-26T19:07:17.931Z,14.77
2022-12-26T19:09:47.193Z,14.38
2022-12-26T19:12:15.387Z,14.80
2022-12-26T19:14:45.280Z,14.75
2022-12-26T19:17:12.777Z,19.13
2022-12-26T19:19:39.879Z,16.02
2022-12-26T19:22:07.552Z,15.23
2022-12-26T19:24:34.628Z,15.15
2022-12-26T19:27:02.869Z,14.90
2022-12-26T19:29:33.098Z,15.32
2022-12-26T19:32:00.341Z,13.23
2022-12-26T19:34:29.173Z,14.18
2022-12-26T19:36:57.505Z,14.68
2022-12-26T19:39:27.190Z,14.68
2022-12-26T19:41:57.114Z,14.10
2022-12-26T19:44:24.285Z,13.85
2022-12-26T19:47:11.767Z,12.93
2022-12-26T19:49:38.968Z,14.23
2022-12-26T19:52:06.356Z,13.25
2022-12-26T19:54:33.482Z,12.98
2022-12-26T19:57:00.739Z,12.70
2022-12-26T19:59:27.772Z,14.45
2022-12-26T20:01:55.217Z,11.98
2022-12-26T20:04:25.613Z,13.18
2022-12-26T20:06:52.862Z,13.18
2022-12-26T20:09:20.005Z,17.02
2022-12-26T20:11:54.450Z,11.60
2022-12-26T20:14:23.053Z,11.63
2022-12-26T20:17:09.685Z,11.80
2022-12-26T20:19:37.370Z,13.63
2022-12-26T20:22:05.902Z,13.48
2022-12-26T20:24:33.549Z,11.48
2022-12-26T20:27:03.213Z,12.73
2022-12-26T20:29:31.343Z,12.50
2022-12-26T20:32:02.030Z,12.30
2022-12-26T20:34:32.557Z,11.30
2022-12-26T20:36:59.699Z,12.02
2022-12-26T20:39:27.418Z,12.02
2022-12-26T20:41:54.498Z,13.73
2022-12-26T20:44:21.950Z,14.77
2022-12-26T20:46:50.833Z,10.48
2022-12-26T20:49:19.414Z,10.57
2022-12-26T20:51:46.745Z,9.77
2022-12-26T20:54:15.507Z,11.15
2022-12-26T20:56:43.082Z,10.65
2022-12-26T20:59:10.635Z,8.73
2022-12-26T21:01:39.681Z,11.50
2022-12-26T21:04:07.988Z,11.20
2022-12-26T21:06:37.555Z,10.60
2022-12-26T21:09:06.809Z,10.15
2022-12-26T21:11:38.535Z,10.27
2022-12-26T21:14:19.669Z,10.52
2022-12-26T21:16:58.419Z,10.57
2022-12-26T21:19:27.873Z,8.88
2022-12-26T21:21:56.371Z,11.18
2022-12-26T21:24:33.321Z,9.85
2022-12-26T21:27:01.207Z,12.10
2022-12-26T21:29:31.240Z,11.95
2022-12-26T21:31:59.102Z,10.93
2022-12-26T21:34:28.731Z,10.77
2022-12-26T21:37:15.359Z,11.43
2022-12-26T21:39:45.784Z,10.73
2022-12-26T21:42:12.976Z,11.20
2022-12-26T21:44:40.333Z,11.43
2022-12-26T21:47:10.406Z,10.20
2022-12-26T21:49:37.879Z,10.38
2022-12-26T21:52:06.418Z,8.02
2022-12-26T21:54:52.151Z,11.75
2022-12-26T21:57:19.629Z,11.23
2022-12-26T21:59:59.112Z,11.45
2022-12-26T22:02:56.267Z,11.43
2022-12-26T22:05:26.206Z,11.15
2022-12-26T22:07:56.280Z,10.30
2022-12-26T22:10:42.796Z,10.68
2022-12-26T22:13:09.762Z,11.48
2022-12-26T22:16:05.537Z,10.75
2022-12-26T22:18:46.394Z,13.52
2022-12-26T22:21:21.155Z,8.73
2022-12-26T22:23:51.829Z,11.17
2022-12-26T22:26:20.413Z,10.48
2022-12-26T22:28:47.896Z,9.75
2022-12-26T22:31:26.396Z,10.60
2022-12-26T22:34:05.802Z,9.15
2022-12-26T22:36:33.476Z,9.77
2022-12-26T22:39:00.506Z,10.02
2022-12-26T22:41:28.304Z,7.97
2022-12-26T22:43:55.428Z,9.40
2022-12-26T22:46:22.882Z,9.52
2022-12-26T22:48:50.211Z,9.50
2022-12-26T22:51:23.239Z,9.15
2022-12-26T22:53:54.479Z,9.48
2022-12-26T22:56:21.702Z,8.75
2022-12-26T22:58:52.002Z,9.32
2022-12-26T23:01:19.712Z,8.45
2022-12-26T23:03:46.835Z,10.88
2022-12-26T23:06:26.309Z,8.75
2022-12-26T23:08:56.869Z,9.05
2022-12-26T23:11:32.155Z,8.18
2022-12-26T23:14:02.185Z,8.00
2022-12-26T23:16:38.029Z,8.32
2022-12-26T23:19:37.091Z,8.77
2022-12-26T23:22:04.338Z,8.05
2022-12-26T23:24:33.112Z,8.07
2022-12-26T23:27:24.651Z,6.03
2022-12-26T23:30:11.681Z,8.77
2022-12-26T23:32:40.587Z,6.60
2022-12-26T23:35:09.750Z,7.30
2022-12-26T23:37:38.354Z,8.82
2022-12-26T23:40:06.335Z,7.95
2022-12-26T23:42:33.565Z,6.43
2022-12-26T23:45:00.703Z,6.25
2022-12-26T23:47:27.713Z,9.38
2022-12-26T23:49:54.688Z,7.85
2022-12-26T23:52:26.760Z,7.05
2022-12-26T23:54:56.911Z,7.63
2022-12-26T23:57:24.169Z,7.47
2022-12-26T23:59:51.198Z,6.78
